Terminal Aerodrome Forecast
Issued by NWS

Home | Current Version | Previous Version | Text Only | Print | Product List | Glossary On
Versions: 1 2 3 4 5 6 7 8 9 10 11 12 13 14 15 16 17 18 19 20 21 22 23 24
000
FTUS44 KBMX 181741
TAFMGM
TAF
KMGM 181741Z 1818/1918 VRB03KT P6SM BKN011 OVC026
     FM190400 14003KT 5SM BR OVC007
     FM190800 15006KT 4SM BR OVC005
     FM191200 16012KT 4SM BR OVC003
     FM191500 18012G22KT 6SM SHRA BR OVC015=

USA.gov is the U.S. government's official web portal to all federal, state and local government web resources and services.